sensor_id;sensor_type;location;lat;lon;timestamp;P1;durP1;ratioP1;P2;durP2;ratioP2
48871;SDS011;36154;51.674;7.824;2023-12-20T00:01:31;0.50;;;0.50;;
48871;SDS011;36154;51.674;7.824;2023-12-20T00:03:56;0.50;;;0.50;;
48871;SDS011;36154;51.674;7.824;2023-12-20T00:06:21;0.60;;;0.60;;
48871;SDS011;36154;51.674;7.824;2023-12-20T00:08:47;0.50;;;0.50;;
48871;SDS011;36154;51.674;7.824;2023-12-20T00:11:12;0.95;;;0.43;;
48871;SDS011;36154;51.674;7.824;2023-12-20T00:13:38;0.50;;;0.50;;
48871;SDS011;36154;51.674;7.824;2023-12-20T00:16:03;0.50;;;0.50;;
48871;SDS011;36154;51.674;7.824;2023-12-20T00:18:28;0.50;;;0.50;;
48871;SDS011;36154;51.674;7.824;2023-12-20T00:20:54;0.43;;;0.43;;
48871;SDS011;36154;51.674;7.824;2023-12-20T00:23:19;0.70;;;0.70;;
48871;SDS011;36154;51.674;7.824;2023-12-20T00:25:44;0.55;;;0.55;;
48871;SDS011;36154;51.674;7.824;2023-12-20T00:28:10;0.38;;;0.38;;
48871;SDS011;36154;51.674;7.824;2023-12-20T00:30:35;0.40;;;0.40;;
48871;SDS011;36154;51.674;7.824;2023-12-20T00:33:01;0.65;;;0.63;;
48871;SDS011;36154;51.674;7.824;2023-12-20T00:35:27;0.40;;;0.40;;
48871;SDS011;36154;51.674;7.824;2023-12-20T00:37:52;0.40;;;0.40;;
48871;SDS011;36154;51.674;7.824;2023-12-20T00:40:18;0.50;;;0.50;;
48871;SDS011;36154;51.674;7.824;2023-12-20T00:42:43;0.40;;;0.40;;
48871;SDS011;36154;51.674;7.824;2023-12-20T00:45:08;0.52;;;0.52;;
48871;SDS011;36154;51.674;7.824;2023-12-20T00:47:34;0.47;;;0.47;;
48871;SDS011;36154;51.674;7.824;2023-12-20T00:49:59;0.40;;;0.40;;
48871;SDS011;36154;51.674;7.824;2023-12-20T00:52:24;0.40;;;0.40;;
48871;SDS011;36154;51.674;7.824;2023-12-20T00:54:50;0.43;;;0.43;;
48871;SDS011;36154;51.674;7.824;2023-12-20T00:57:15;0.40;;;0.40;;
48871;SDS011;36154;51.674;7.824;2023-12-20T00:59:41;0.40;;;0.40;;
48871;SDS011;36154;51.674;7.824;2023-12-20T01:02:06;0.40;;;0.40;;
48871;SDS011;36154;51.674;7.824;2023-12-20T01:04:32;0.38;;;0.38;;
48871;SDS011;36154;51.674;7.824;2023-12-20T01:06:57;0.40;;;0.40;;
48871;SDS011;36154;51.674;7.824;2023-12-20T01:09:22;0.30;;;0.30;;
48871;SDS011;36154;51.674;7.824;2023-12-20T01:11:53;0.50;;;0.50;;
48871;SDS011;36154;51.674;7.824;2023-12-20T01:14:19;0.50;;;0.50;;
48871;SDS011;36154;51.674;7.824;2023-12-20T01:16:44;0.40;;;0.40;;
48871;SDS011;36154;51.674;7.824;2023-12-20T01:19:09;0.40;;;0.40;;
48871;SDS011;36154;51.674;7.824;2023-12-20T01:21:35;0.40;;;0.40;;
48871;SDS011;36154;51.674;7.824;2023-12-20T01:24:00;0.43;;;0.43;;
48871;SDS011;36154;51.674;7.824;2023-12-20T01:26:25;0.32;;;0.25;;
48871;SDS011;36154;51.674;7.824;2023-12-20T01:28:51;0.40;;;0.40;;
48871;SDS011;36154;51.674;7.824;2023-12-20T01:31:16;0.40;;;0.40;;
48871;SDS011;36154;51.674;7.824;2023-12-20T01:33:41;0.30;;;0.30;;
48871;SDS011;36154;51.674;7.824;2023-12-20T01:36:06;0.32;;;0.32;;
48871;SDS011;36154;51.674;7.824;2023-12-20T01:38:32;0.30;;;0.30;;
48871;SDS011;36154;51.674;7.824;2023-12-20T01:40:58;0.30;;;0.30;;
48871;SDS011;36154;51.674;7.824;2023-12-20T01:43:24;0.38;;;0.38;;
48871;SDS011;36154;51.674;7.824;2023-12-20T01:45:49;0.30;;;0.30;;
48871;SDS011;36154;51.674;7.824;2023-12-20T01:48:14;0.40;;;0.40;;
48871;SDS011;36154;51.674;7.824;2023-12-20T01:50:41;0.30;;;0.30;;
48871;SDS011;36154;51.674;7.824;2023-12-20T01:53:09;0.25;;;0.25;;
48871;SDS011;36154;51.674;7.824;2023-12-20T01:55:37;0.43;;;0.43;;
48871;SDS011;36154;51.674;7.824;2023-12-20T01:58:05;0.40;;;0.40;;
48871;SDS011;36154;51.674;7.824;2023-12-20T02:00:32;0.30;;;0.30;;
48871;SDS011;36154;51.674;7.824;2023-12-20T02:03:00;0.30;;;0.30;;
48871;SDS011;36154;51.674;7.824;2023-12-20T02:05:27;0.30;;;0.30;;
48871;SDS011;36154;51.674;7.824;2023-12-20T02:07:53;0.38;;;0.38;;
48871;SDS011;36154;51.674;7.824;2023-12-20T02:10:18;0.25;;;0.25;;
48871;SDS011;36154;51.674;7.824;2023-12-20T02:12:44;0.40;;;0.40;;
48871;SDS011;36154;51.674;7.824;2023-12-20T02:15:09;0.30;;;0.30;;
48871;SDS011;36154;51.674;7.824;2023-12-20T02:17:35;0.30;;;0.30;;
48871;SDS011;36154;51.674;7.824;2023-12-20T02:20:01;0.30;;;0.30;;
48871;SDS011;36154;51.674;7.824;2023-12-20T02:22:26;0.28;;;0.28;;
48871;SDS011;36154;51.674;7.824;2023-12-20T02:24:51;0.30;;;0.30;;
48871;SDS011;36154;51.674;7.824;2023-12-20T02:27:17;0.25;;;0.25;;
48871;SDS011;36154;51.674;7.824;2023-12-20T02:29:44;0.45;;;0.40;;
48871;SDS011;36154;51.674;7.824;2023-12-20T02:32:12;0.30;;;0.30;;
48871;SDS011;36154;51.674;7.824;2023-12-20T02:34:37;0.25;;;0.20;;
48871;SDS011;36154;51.674;7.824;2023-12-20T02:37:03;0.57;;;0.40;;
48871;SDS011;36154;51.674;7.824;2023-12-20T02:39:28;0.25;;;0.25;;
48871;SDS011;36154;51.674;7.824;2023-12-20T02:41:53;0.30;;;0.30;;
48871;SDS011;36154;51.674;7.824;2023-12-20T02:44:18;0.30;;;0.30;;
48871;SDS011;36154;51.674;7.824;2023-12-20T02:46:44;0.30;;;0.22;;
48871;SDS011;36154;51.674;7.824;2023-12-20T02:49:09;0.30;;;0.30;;
48871;SDS011;36154;51.674;7.824;2023-12-20T02:51:34;0.52;;;0.28;;
48871;SDS011;36154;51.674;7.824;2023-12-20T02:54:03;0.30;;;0.30;;
48871;SDS011;36154;51.674;7.824;2023-12-20T02:56:28;0.32;;;0.30;;
48871;SDS011;36154;51.674;7.824;2023-12-20T02:58:53;0.50;;;0.30;;
48871;SDS011;36154;51.674;7.824;2023-12-20T03:01:18;0.22;;;0.22;;
48871;SDS011;36154;51.674;7.824;2023-12-20T03:03:44;0.68;;;0.35;;
48871;SDS011;36154;51.674;7.824;2023-12-20T03:06:10;0.20;;;0.20;;
48871;SDS011;36154;51.674;7.824;2023-12-20T03:08:35;0.32;;;0.20;;
48871;SDS011;36154;51.674;7.824;2023-12-20T03:11:00;0.40;;;0.30;;
48871;SDS011;36154;51.674;7.824;2023-12-20T03:13:25;0.25;;;0.25;;
48871;SDS011;36154;51.674;7.824;2023-12-20T03:15:51;0.22;;;0.22;;
48871;SDS011;36154;51.674;7.824;2023-12-20T03:18:16;0.30;;;0.30;;
48871;SDS011;36154;51.674;7.824;2023-12-20T03:20:42;0.45;;;0.20;;
48871;SDS011;36154;51.674;7.824;2023-12-20T03:23:07;0.38;;;0.30;;
48871;SDS011;36154;51.674;7.824;2023-12-20T03:25:32;0.60;;;0.40;;
48871;SDS011;36154;51.674;7.824;2023-12-20T03:27:57;0.30;;;0.30;;
48871;SDS011;36154;51.674;7.824;2023-12-20T03:30:23;0.20;;;0.20;;
48871;SDS011;36154;51.674;7.824;2023-12-20T03:32:48;0.35;;;0.35;;
48871;SDS011;36154;51.674;7.824;2023-12-20T03:35:13;0.20;;;0.20;;
48871;SDS011;36154;51.674;7.824;2023-12-20T03:37:38;0.30;;;0.30;;
48871;SDS011;36154;51.674;7.824;2023-12-20T03:40:04;0.68;;;0.30;;
48871;SDS011;36154;51.674;7.824;2023-12-20T03:42:30;0.30;;;0.20;;
48871;SDS011;36154;51.674;7.824;2023-12-20T03:44:55;0.20;;;0.20;;
48871;SDS011;36154;51.674;7.824;2023-12-20T03:47:20;0.25;;;0.25;;
48871;SDS011;36154;51.674;7.824;2023-12-20T03:49:45;0.20;;;0.20;;
48871;SDS011;36154;51.674;7.824;2023-12-20T03:52:11;0.20;;;0.20;;
48871;SDS011;36154;51.674;7.824;2023-12-20T03:54:37;0.30;;;0.25;;
48871;SDS011;36154;51.674;7.824;2023-12-20T03:57:03;0.30;;;0.30;;
48871;SDS011;36154;51.674;7.824;2023-12-20T03:59:29;0.20;;;0.20;;
48871;SDS011;36154;51.674;7.824;2023-12-20T04:01:55;0.17;;;0.17;;
48871;SDS011;36154;51.674;7.824;2023-12-20T04:04:20;0.20;;;0.20;;
48871;SDS011;36154;51.674;7.824;2023-12-20T04:06:45;0.20;;;0.20;;
48871;SDS011;36154;51.674;7.824;2023-12-20T04:09:10;0.20;;;0.20;;
48871;SDS011;36154;51.674;7.824;2023-12-20T04:11:36;0.20;;;0.20;;
48871;SDS011;36154;51.674;7.824;2023-12-20T04:14:02;0.40;;;0.20;;
48871;SDS011;36154;51.674;7.824;2023-12-20T04:16:27;0.20;;;0.20;;
48871;SDS011;36154;51.674;7.824;2023-12-20T04:18:52;0.30;;;0.20;;
48871;SDS011;36154;51.674;7.824;2023-12-20T04:21:18;0.20;;;0.20;;
48871;SDS011;36154;51.674;7.824;2023-12-20T04:23:43;0.32;;;0.30;;
48871;SDS011;36154;51.674;7.824;2023-12-20T04:26:08;0.20;;;0.20;;
48871;SDS011;36154;51.674;7.824;2023-12-20T04:28:34;0.38;;;0.30;;
48871;SDS011;36154;51.674;7.824;2023-12-20T04:30:59;0.30;;;0.20;;
48871;SDS011;36154;51.674;7.824;2023-12-20T04:33:25;0.32;;;0.30;;
48871;SDS011;36154;51.674;7.824;2023-12-20T04:35:50;0.28;;;0.28;;
48871;SDS011;36154;51.674;7.824;2023-12-20T04:38:15;0.80;;;0.25;;
48871;SDS011;36154;51.674;7.824;2023-12-20T04:40:40;0.20;;;0.20;;
48871;SDS011;36154;51.674;7.824;2023-12-20T04:43:06;0.90;;;0.20;;
48871;SDS011;36154;51.674;7.824;2023-12-20T04:45:32;0.20;;;0.20;;
48871;SDS011;36154;51.674;7.824;2023-12-20T04:47:57;0.52;;;0.20;;
48871;SDS011;36154;51.674;7.824;2023-12-20T04:50:23;0.30;;;0.30;;
48871;SDS011;36154;51.674;7.824;2023-12-20T04:52:48;0.28;;;0.20;;
48871;SDS011;36154;51.674;7.824;2023-12-20T04:55:14;0.22;;;0.20;;
48871;SDS011;36154;51.674;7.824;2023-12-20T04:57:39;0.57;;;0.20;;
48871;SDS011;36154;51.674;7.824;2023-12-20T05:00:04;0.30;;;0.30;;
48871;SDS011;36154;51.674;7.824;2023-12-20T05:02:31;0.20;;;0.20;;
48871;SDS011;36154;51.674;7.824;2023-12-20T05:04:56;0.30;;;0.20;;
48871;SDS011;36154;51.674;7.824;2023-12-20T05:07:21;0.40;;;0.20;;
48871;SDS011;36154;51.674;7.824;2023-12-20T05:09:46;0.32;;;0.20;;
48871;SDS011;36154;51.674;7.824;2023-12-20T05:12:12;0.30;;;0.20;;
48871;SDS011;36154;51.674;7.824;2023-12-20T05:14:37;0.60;;;0.20;;
48871;SDS011;36154;51.674;7.824;2023-12-20T05:17:02;0.25;;;0.20;;
48871;SDS011;36154;51.674;7.824;2023-12-20T05:19:28;0.32;;;0.20;;
48871;SDS011;36154;51.674;7.824;2023-12-20T05:21:53;0.10;;;0.10;;
48871;SDS011;36154;51.674;7.824;2023-12-20T05:24:19;0.20;;;0.20;;
48871;SDS011;36154;51.674;7.824;2023-12-20T05:26:44;1.05;;;0.20;;
48871;SDS011;36154;51.674;7.824;2023-12-20T05:29:09;0.20;;;0.20;;
48871;SDS011;36154;51.674;7.824;2023-12-20T05:31:34;0.20;;;0.20;;
48871;SDS011;36154;51.674;7.824;2023-12-20T05:34:00;0.30;;;0.30;;
48871;SDS011;36154;51.674;7.824;2023-12-20T05:36:25;0.32;;;0.20;;
48871;SDS011;36154;51.674;7.824;2023-12-20T05:38:51;0.32;;;0.30;;
48871;SDS011;36154;51.674;7.824;2023-12-20T05:41:16;0.52;;;0.43;;
48871;SDS011;36154;51.674;7.824;2023-12-20T05:43:41;0.20;;;0.20;;
48871;SDS011;36154;51.674;7.824;2023-12-20T05:46:06;0.35;;;0.35;;
48871;SDS011;36154;51.674;7.824;2023-12-20T05:48:32;0.55;;;0.40;;
48871;SDS011;36154;51.674;7.824;2023-12-20T05:50:57;0.65;;;0.20;;
48871;SDS011;36154;51.674;7.824;2023-12-20T05:53:22;0.17;;;0.17;;
48871;SDS011;36154;51.674;7.824;2023-12-20T05:55:48;0.47;;;0.30;;
48871;SDS011;36154;51.674;7.824;2023-12-20T05:58:13;0.30;;;0.30;;
48871;SDS011;36154;51.674;7.824;2023-12-20T06:00:38;0.20;;;0.20;;
48871;SDS011;36154;51.674;7.824;2023-12-20T06:03:04;0.30;;;0.20;;
48871;SDS011;36154;51.674;7.824;2023-12-20T06:05:30;0.32;;;0.20;;
48871;SDS011;36154;51.674;7.824;2023-12-20T06:07:55;0.55;;;0.35;;
48871;SDS011;36154;51.674;7.824;2023-12-20T06:10:26;0.30;;;0.20;;
48871;SDS011;36154;51.674;7.824;2023-12-20T06:12:51;0.45;;;0.20;;
48871;SDS011;36154;51.674;7.824;2023-12-20T06:15:16;0.30;;;0.30;;
48871;SDS011;36154;51.674;7.824;2023-12-20T06:17:42;0.70;;;0.30;;
48871;SDS011;36154;51.674;7.824;2023-12-20T06:20:07;0.30;;;0.30;;
48871;SDS011;36154;51.674;7.824;2023-12-20T06:22:34;1.00;;;0.38;;
48871;SDS011;36154;51.674;7.824;2023-12-20T06:24:59;0.45;;;0.38;;
48871;SDS011;36154;51.674;7.824;2023-12-20T06:27:25;1.45;;;0.40;;
48871;SDS011;36154;51.674;7.824;2023-12-20T06:29:50;0.43;;;0.25;;
48871;SDS011;36154;51.674;7.824;2023-12-20T06:32:15;0.57;;;0.25;;
48871;SDS011;36154;51.674;7.824;2023-12-20T06:34:41;0.30;;;0.30;;
48871;SDS011;36154;51.674;7.824;2023-12-20T06:37:06;0.30;;;0.30;;
48871;SDS011;36154;51.674;7.824;2023-12-20T06:39:31;0.52;;;0.38;;
48871;SDS011;36154;51.674;7.824;2023-12-20T06:41:58;1.13;;;0.25;;
48871;SDS011;36154;51.674;7.824;2023-12-20T06:44:24;0.73;;;0.40;;
48871;SDS011;36154;51.674;7.824;2023-12-20T06:46:49;1.42;;;0.35;;
48871;SDS011;36154;51.674;7.824;2023-12-20T06:49:14;1.95;;;0.40;;
48871;SDS011;36154;51.674;7.824;2023-12-20T06:51:40;2.28;;;0.40;;
48871;SDS011;36154;51.674;7.824;2023-12-20T06:54:05;0.38;;;0.25;;
48871;SDS011;36154;51.674;7.824;2023-12-20T06:56:30;0.50;;;0.30;;
48871;SDS011;36154;51.674;7.824;2023-12-20T06:58:55;0.65;;;0.30;;
48871;SDS011;36154;51.674;7.824;2023-12-20T07:01:21;0.43;;;0.20;;
48871;SDS011;36154;51.674;7.824;2023-12-20T07:03:47;0.30;;;0.30;;
48871;SDS011;36154;51.674;7.824;2023-12-20T07:06:12;0.52;;;0.30;;
48871;SDS011;36154;51.674;7.824;2023-12-20T07:08:39;0.65;;;0.32;;
48871;SDS011;36154;51.674;7.824;2023-12-20T07:11:05;0.77;;;0.40;;
48871;SDS011;36154;51.674;7.824;2023-12-20T07:13:30;0.32;;;0.30;;
48871;SDS011;36154;51.674;7.824;2023-12-20T07:15:56;0.30;;;0.30;;
48871;SDS011;36154;51.674;7.824;2023-12-20T07:18:21;0.75;;;0.50;;
48871;SDS011;36154;51.674;7.824;2023-12-20T07:20:46;0.40;;;0.30;;
48871;SDS011;36154;51.674;7.824;2023-12-20T07:23:12;0.60;;;0.20;;
48871;SDS011;36154;51.674;7.824;2023-12-20T07:25:37;0.93;;;0.30;;
48871;SDS011;36154;51.674;7.824;2023-12-20T07:28:02;0.55;;;0.30;;
48871;SDS011;36154;51.674;7.824;2023-12-20T07:30:28;0.45;;;0.22;;
48871;SDS011;36154;51.674;7.824;2023-12-20T07:32:53;0.47;;;0.30;;
48871;SDS011;36154;51.674;7.824;2023-12-20T07:35:18;0.60;;;0.40;;
48871;SDS011;36154;51.674;7.824;2023-12-20T07:37:44;0.50;;;0.30;;
48871;SDS011;36154;51.674;7.824;2023-12-20T07:40:09;1.10;;;0.32;;
48871;SDS011;36154;51.674;7.824;2023-12-20T07:42:35;0.70;;;0.30;;
48871;SDS011;36154;51.674;7.824;2023-12-20T07:45:00;0.32;;;0.25;;
48871;SDS011;36154;51.674;7.824;2023-12-20T07:47:25;1.17;;;0.30;;
48871;SDS011;36154;51.674;7.824;2023-12-20T07:49:51;0.98;;;0.60;;
48871;SDS011;36154;51.674;7.824;2023-12-20T07:52:17;1.27;;;0.30;;
48871;SDS011;36154;51.674;7.824;2023-12-20T07:54:43;0.60;;;0.30;;
48871;SDS011;36154;51.674;7.824;2023-12-20T07:57:08;0.95;;;0.40;;
48871;SDS011;36154;51.674;7.824;2023-12-20T07:59:35;0.50;;;0.43;;
48871;SDS011;36154;51.674;7.824;2023-12-20T08:02:00;0.38;;;0.38;;
48871;SDS011;36154;51.674;7.824;2023-12-20T08:04:26;0.52;;;0.40;;
48871;SDS011;36154;51.674;7.824;2023-12-20T08:06:51;0.43;;;0.40;;
48871;SDS011;36154;51.674;7.824;2023-12-20T08:09:16;0.63;;;0.43;;
48871;SDS011;36154;51.674;7.824;2023-12-20T08:11:48;2.15;;;0.75;;
48871;SDS011;36154;51.674;7.824;2023-12-20T08:14:14;0.68;;;0.50;;
48871;SDS011;36154;51.674;7.824;2023-12-20T08:16:40;2.72;;;0.50;;
48871;SDS011;36154;51.674;7.824;2023-12-20T08:19:05;0.50;;;0.50;;
48871;SDS011;36154;51.674;7.824;2023-12-20T08:21:30;0.82;;;0.70;;
48871;SDS011;36154;51.674;7.824;2023-12-20T08:23:55;0.80;;;0.80;;
48871;SDS011;36154;51.674;7.824;2023-12-20T08:26:21;0.80;;;0.80;;
48871;SDS011;36154;51.674;7.824;2023-12-20T08:28:50;0.93;;;0.70;;
48871;SDS011;36154;51.674;7.824;2023-12-20T08:31:15;1.52;;;0.70;;
48871;SDS011;36154;51.674;7.824;2023-12-20T08:33:45;1.20;;;0.75;;
48871;SDS011;36154;51.674;7.824;2023-12-20T08:36:12;0.90;;;0.70;;
48871;SDS011;36154;51.674;7.824;2023-12-20T08:38:37;0.73;;;0.52;;
48871;SDS011;36154;51.674;7.824;2023-12-20T08:41:03;2.83;;;0.77;;
48871;SDS011;36154;51.674;7.824;2023-12-20T08:43:30;1.00;;;0.90;;
48871;SDS011;36154;51.674;7.824;2023-12-20T08:45:59;0.88;;;0.70;;
48871;SDS011;36154;51.674;7.824;2023-12-20T08:48:24;0.73;;;0.73;;
48871;SDS011;36154;51.674;7.824;2023-12-20T08:50:50;1.10;;;0.77;;
48871;SDS011;36154;51.674;7.824;2023-12-20T08:53:17;0.70;;;0.70;;
48871;SDS011;36154;51.674;7.824;2023-12-20T08:55:43;0.60;;;0.60;;
48871;SDS011;36154;51.674;7.824;2023-12-20T08:58:08;0.90;;;0.90;;
48871;SDS011;36154;51.674;7.824;2023-12-20T09:00:34;1.38;;;1.10;;
48871;SDS011;36154;51.674;7.824;2023-12-20T09:02:59;1.17;;;1.02;;
48871;SDS011;36154;51.674;7.824;2023-12-20T09:05:25;1.15;;;1.05;;
48871;SDS011;36154;51.674;7.824;2023-12-20T09:07:51;0.75;;;0.70;;
48871;SDS011;36154;51.674;7.824;2023-12-20T09:10:16;2.03;;;0.80;;
48871;SDS011;36154;51.674;7.824;2023-12-20T09:12:46;1.98;;;1.00;;
48871;SDS011;36154;51.674;7.824;2023-12-20T09:15:12;1.00;;;0.90;;
48871;SDS011;36154;51.674;7.824;2023-12-20T09:17:38;0.90;;;0.68;;
48871;SDS011;36154;51.674;7.824;2023-12-20T09:20:04;1.45;;;0.90;;
48871;SDS011;36154;51.674;7.824;2023-12-20T09:22:31;2.30;;;0.80;;
48871;SDS011;36154;51.674;7.824;2023-12-20T09:24:57;5.32;;;1.63;;
48871;SDS011;36154;51.674;7.824;2023-12-20T09:27:22;2.00;;;1.10;;
48871;SDS011;36154;51.674;7.824;2023-12-20T09:29:48;3.05;;;1.23;;
48871;SDS011;36154;51.674;7.824;2023-12-20T09:32:13;3.70;;;1.98;;
48871;SDS011;36154;51.674;7.824;2023-12-20T09:34:39;4.25;;;2.13;;
48871;SDS011;36154;51.674;7.824;2023-12-20T09:37:04;5.05;;;2.15;;
48871;SDS011;36154;51.674;7.824;2023-12-20T09:39:30;6.68;;;2.53;;
48871;SDS011;36154;51.674;7.824;2023-12-20T09:41:59;8.05;;;2.88;;
48871;SDS011;36154;51.674;7.824;2023-12-20T09:44:28;7.97;;;2.88;;
48871;SDS011;36154;51.674;7.824;2023-12-20T09:46:54;7.55;;;2.80;;
48871;SDS011;36154;51.674;7.824;2023-12-20T09:49:21;8.57;;;3.20;;
48871;SDS011;36154;51.674;7.824;2023-12-20T09:51:47;9.20;;;3.17;;
48871;SDS011;36154;51.674;7.824;2023-12-20T09:54:19;10.70;;;3.13;;
48871;SDS011;36154;51.674;7.824;2023-12-20T09:56:45;10.35;;;3.33;;
48871;SDS011;36154;51.674;7.824;2023-12-20T09:59:11;8.27;;;2.92;;
48871;SDS011;36154;51.674;7.824;2023-12-20T10:01:36;8.82;;;3.40;;
48871;SDS011;36154;51.674;7.824;2023-12-20T10:04:07;7.75;;;2.95;;
48871;SDS011;36154;51.674;7.824;2023-12-20T10:06:43;7.67;;;2.80;;
48871;SDS011;36154;51.674;7.824;2023-12-20T10:09:09;9.05;;;3.05;;
48871;SDS011;36154;51.674;7.824;2023-12-20T10:11:36;5.60;;;2.70;;
48871;SDS011;36154;51.674;7.824;2023-12-20T10:14:05;6.28;;;2.95;;
48871;SDS011;36154;51.674;7.824;2023-12-20T10:16:31;8.43;;;2.80;;
48871;SDS011;36154;51.674;7.824;2023-12-20T10:18:57;7.93;;;3.30;;
48871;SDS011;36154;51.674;7.824;2023-12-20T10:21:23;7.05;;;3.05;;
48871;SDS011;36154;51.674;7.824;2023-12-20T10:23:51;6.78;;;2.67;;
48871;SDS011;36154;51.674;7.824;2023-12-20T10:26:20;6.22;;;2.60;;
48871;SDS011;36154;51.674;7.824;2023-12-20T10:28:55;6.75;;;2.80;;
48871;SDS011;36154;51.674;7.824;2023-12-20T10:31:28;7.25;;;2.80;;
48871;SDS011;36154;51.674;7.824;2023-12-20T10:34:01;6.63;;;2.70;;
48871;SDS011;36154;51.674;7.824;2023-12-20T10:36:28;7.50;;;2.65;;
48871;SDS011;36154;51.674;7.824;2023-12-20T10:38:55;7.78;;;2.70;;
48871;SDS011;36154;51.674;7.824;2023-12-20T10:41:29;10.15;;;2.47;;
48871;SDS011;36154;51.674;7.824;2023-12-20T10:46:23;3.50;;;1.92;;
48871;SDS011;36154;51.674;7.824;2023-12-20T10:48:51;5.72;;;2.72;;
48871;SDS011;36154;51.674;7.824;2023-12-20T10:51:18;5.22;;;2.17;;
48871;SDS011;36154;51.674;7.824;2023-12-20T10:53:43;4.05;;;1.98;;
48871;SDS011;36154;51.674;7.824;2023-12-20T10:56:12;3.08;;;1.95;;
48871;SDS011;36154;51.674;7.824;2023-12-20T10:58:41;7.13;;;2.33;;
48871;SDS011;36154;51.674;7.824;2023-12-20T11:01:08;4.28;;;2.17;;
48871;SDS011;36154;51.674;7.824;2023-12-20T11:03:34;5.15;;;2.80;;
48871;SDS011;36154;51.674;7.824;2023-12-20T11:06:25;4.40;;;2.22;;
48871;SDS011;36154;51.674;7.824;2023-12-20T11:14:35;3.15;;;1.95;;
48871;SDS011;36154;51.674;7.824;2023-12-20T11:17:10;3.15;;;2.10;;
48871;SDS011;36154;51.674;7.824;2023-12-20T11:22:25;3.50;;;2.05;;
48871;SDS011;36154;51.674;7.824;2023-12-20T11:24:52;2.35;;;1.67;;
48871;SDS011;36154;51.674;7.824;2023-12-20T11:27:18;3.38;;;1.50;;
48871;SDS011;36154;51.674;7.824;2023-12-20T11:29:50;3.63;;;1.90;;
48871;SDS011;36154;51.674;7.824;2023-12-20T11:34:50;3.03;;;1.35;;
48871;SDS011;36154;51.674;7.824;2023-12-20T11:37:16;2.80;;;1.60;;
48871;SDS011;36154;51.674;7.824;2023-12-20T11:39:42;3.17;;;1.65;;
48871;SDS011;36154;51.674;7.824;2023-12-20T11:42:08;3.05;;;1.55;;
48871;SDS011;36154;51.674;7.824;2023-12-20T11:44:35;2.42;;;1.83;;
48871;SDS011;36154;51.674;7.824;2023-12-20T11:47:01;2.47;;;1.70;;
48871;SDS011;36154;51.674;7.824;2023-12-20T11:49:26;12.57;;;1.88;;
48871;SDS011;36154;51.674;7.824;2023-12-20T11:51:54;2.67;;;1.30;;
48871;SDS011;36154;51.674;7.824;2023-12-20T11:54:19;4.22;;;1.60;;
48871;SDS011;36154;51.674;7.824;2023-12-20T11:56:45;2.92;;;1.33;;
48871;SDS011;36154;51.674;7.824;2023-12-20T11:59:10;4.18;;;1.40;;
48871;SDS011;36154;51.674;7.824;2023-12-20T12:01:36;3.17;;;1.45;;
48871;SDS011;36154;51.674;7.824;2023-12-20T12:04:05;1.30;;;1.00;;
48871;SDS011;36154;51.674;7.824;2023-12-20T12:06:30;2.92;;;1.60;;
48871;SDS011;36154;51.674;7.824;2023-12-20T12:08:56;2.60;;;1.10;;
48871;SDS011;36154;51.674;7.824;2023-12-20T12:11:21;2.10;;;1.00;;
48871;SDS011;36154;51.674;7.824;2023-12-20T12:13:47;2.45;;;1.40;;
48871;SDS011;36154;51.674;7.824;2023-12-20T12:16:16;1.92;;;1.42;;
48871;SDS011;36154;51.674;7.824;2023-12-20T12:18:43;1.83;;;1.13;;
48871;SDS011;36154;51.674;7.824;2023-12-20T12:21:09;2.70;;;1.15;;
48871;SDS011;36154;51.674;7.824;2023-12-20T12:23:34;2.20;;;1.00;;
48871;SDS011;36154;51.674;7.824;2023-12-20T12:26:00;1.85;;;1.10;;
48871;SDS011;36154;51.674;7.824;2023-12-20T12:28:29;1.65;;;1.10;;
48871;SDS011;36154;51.674;7.824;2023-12-20T12:30:57;2.17;;;1.15;;
48871;SDS011;36154;51.674;7.824;2023-12-20T12:33:24;3.78;;;1.00;;
48871;SDS011;36154;51.674;7.824;2023-12-20T12:35:50;2.65;;;0.88;;
48871;SDS011;36154;51.674;7.824;2023-12-20T12:38:16;1.98;;;1.08;;
48871;SDS011;36154;51.674;7.824;2023-12-20T12:40:41;1.65;;;1.08;;
48871;SDS011;36154;51.674;7.824;2023-12-20T12:43:08;1.33;;;0.93;;
48871;SDS011;36154;51.674;7.824;2023-12-20T12:45:34;2.05;;;1.00;;
48871;SDS011;36154;51.674;7.824;2023-12-20T12:47:59;1.83;;;0.95;;
48871;SDS011;36154;51.674;7.824;2023-12-20T12:50:24;0.82;;;0.70;;
48871;SDS011;36154;51.674;7.824;2023-12-20T12:52:50;4.38;;;0.90;;
48871;SDS011;36154;51.674;7.824;2023-12-20T12:55:15;1.73;;;1.10;;
48871;SDS011;36154;51.674;7.824;2023-12-20T12:57:40;1.20;;;0.90;;
48871;SDS011;36154;51.674;7.824;2023-12-20T13:00:06;1.70;;;1.00;;
48871;SDS011;36154;51.674;7.824;2023-12-20T13:02:34;1.33;;;0.90;;
48871;SDS011;36154;51.674;7.824;2023-12-20T13:04:59;1.17;;;0.80;;
48871;SDS011;36154;51.674;7.824;2023-12-20T13:07:25;1.50;;;0.90;;
48871;SDS011;36154;51.674;7.824;2023-12-20T13:09:51;1.38;;;0.75;;
48871;SDS011;36154;51.674;7.824;2023-12-20T13:12:16;1.42;;;0.70;;
48871;SDS011;36154;51.674;7.824;2023-12-20T13:14:41;0.75;;;0.60;;
48871;SDS011;36154;51.674;7.824;2023-12-20T13:17:07;1.10;;;0.80;;
48871;SDS011;36154;51.674;7.824;2023-12-20T13:19:32;1.45;;;0.80;;
48871;SDS011;36154;51.674;7.824;2023-12-20T13:21:57;1.63;;;1.00;;
48871;SDS011;36154;51.674;7.824;2023-12-20T13:24:23;1.13;;;0.70;;
48871;SDS011;36154;51.674;7.824;2023-12-20T13:26:48;1.08;;;0.95;;
48871;SDS011;36154;51.674;7.824;2023-12-20T13:29:13;1.07;;;0.80;;
48871;SDS011;36154;51.674;7.824;2023-12-20T13:31:39;1.10;;;1.00;;
48871;SDS011;36154;51.674;7.824;2023-12-20T13:34:05;1.00;;;1.00;;
48871;SDS011;36154;51.674;7.824;2023-12-20T13:36:30;1.50;;;1.10;;
48871;SDS011;36154;51.674;7.824;2023-12-20T13:38:55;1.35;;;1.10;;
48871;SDS011;36154;51.674;7.824;2023-12-20T13:41:21;1.33;;;1.02;;
48871;SDS011;36154;51.674;7.824;2023-12-20T13:43:46;0.80;;;0.73;;
48871;SDS011;36154;51.674;7.824;2023-12-20T13:46:12;2.33;;;0.97;;
48871;SDS011;36154;51.674;7.824;2023-12-20T13:48:38;2.22;;;0.90;;
48871;SDS011;36154;51.674;7.824;2023-12-20T13:51:04;1.27;;;0.80;;
48871;SDS011;36154;51.674;7.824;2023-12-20T13:53:29;1.40;;;0.80;;
48871;SDS011;36154;51.674;7.824;2023-12-20T13:55:54;1.50;;;1.20;;
48871;SDS011;36154;51.674;7.824;2023-12-20T13:58:20;2.00;;;1.08;;
48871;SDS011;36154;51.674;7.824;2023-12-20T14:00:45;1.98;;;1.10;;
48871;SDS011;36154;51.674;7.824;2023-12-20T14:03:10;1.02;;;0.80;;
48871;SDS011;36154;51.674;7.824;2023-12-20T14:05:36;0.80;;;0.80;;
48871;SDS011;36154;51.674;7.824;2023-12-20T14:08:01;1.17;;;0.50;;
48871;SDS011;36154;51.674;7.824;2023-12-20T14:10:26;0.50;;;0.50;;
48871;SDS011;36154;51.674;7.824;2023-12-20T14:12:52;0.75;;;0.65;;
48871;SDS011;36154;51.674;7.824;2023-12-20T14:15:18;1.27;;;0.60;;
48871;SDS011;36154;51.674;7.824;2023-12-20T14:17:43;0.57;;;0.50;;
48871;SDS011;36154;51.674;7.824;2023-12-20T14:20:09;0.60;;;0.60;;
48871;SDS011;36154;51.674;7.824;2023-12-20T14:22:34;2.22;;;0.77;;
48871;SDS011;36154;51.674;7.824;2023-12-20T14:25:01;0.68;;;0.40;;
48871;SDS011;36154;51.674;7.824;2023-12-20T14:27:26;0.30;;;0.30;;
48871;SDS011;36154;51.674;7.824;2023-12-20T14:29:54;0.40;;;0.40;;
48871;SDS011;36154;51.674;7.824;2023-12-20T14:32:20;0.30;;;0.30;;
48871;SDS011;36154;51.674;7.824;2023-12-20T14:34:45;0.40;;;0.40;;
48871;SDS011;36154;51.674;7.824;2023-12-20T14:37:12;0.57;;;0.40;;
48871;SDS011;36154;51.674;7.824;2023-12-20T14:39:37;0.77;;;0.60;;
48871;SDS011;36154;51.674;7.824;2023-12-20T14:42:09;0.30;;;0.30;;
48871;SDS011;36154;51.674;7.824;2023-12-20T14:44:38;0.30;;;0.30;;
48871;SDS011;36154;51.674;7.824;2023-12-20T14:47:04;0.40;;;0.40;;
48871;SDS011;36154;51.674;7.824;2023-12-20T14:49:29;0.40;;;0.30;;
48871;SDS011;36154;51.674;7.824;2023-12-20T14:51:55;0.43;;;0.43;;
48871;SDS011;36154;51.674;7.824;2023-12-20T14:54:20;0.50;;;0.50;;